Time;durP1;ratioP1;P1;durP2;ratioP2;P2;SDS_P1;SDS_P2;PMS_P1;PMS_P2;Temp;Humidity;BMP_temperature;BMP_pressure;BME280_temperature;BME280_humidity;BME280_pressure;Samples;Min_cycle;Max_cycle;Signal;HPM_P1;HPM_P2
2023/12/16 00:00:21;;;;;;;15.38;9.90;;;;;;;;;;5034010;28;20421;-70
2023/12/16 00:02:48;;;;;;;16.83;9.97;;;;;;;;;;5047210;28;20460;-70
2023/12/16 00:05:15;;;;;;;14.25;10.10;;;;;;;;;;5040585;28;20485;-70
2023/12/16 00:07:42;;;;;;;14.20;9.77;;;;;;;;;;5024926;28;20552;-70
2023/12/16 00:10:09;;;;;;;13.80;9.63;;;;;;;;;;5046703;28;20512;-70
2023/12/16 00:12:38;;;;;;;14.05;9.68;;;;;;;;;;5037246;28;20444;-70
2023/12/16 00:15:06;;;;;;;16.42;10.10;;;;;;;;;;5047458;28;20435;-70
2023/12/16 00:17:33;;;;;;;15.13;10.40;;;;;;;;;;5048544;28;20452;-70
2023/12/16 00:20:00;;;;;;;16.42;10.77;;;;;;;;;;5041469;28;20455;-70
2023/12/16 00:22:27;;;;;;;15.80;10.88;;;;;;;;;;5027164;28;20485;-70
2023/12/16 00:24:55;;;;;;;15.23;10.45;;;;;;;;;;5047287;28;20494;-70
2023/12/16 00:27:22;;;;;;;15.82;9.82;;;;;;;;;;5046484;28;20437;-70
2023/12/16 00:29:50;;;;;;;16.38;10.52;;;;;;;;;;5042032;28;20441;-70
2023/12/16 00:32:18;;;;;;;16.35;10.88;;;;;;;;;;5042419;28;20500;-70
2023/12/16 00:34:45;;;;;;;12.68;9.70;;;;;;;;;;5028864;28;20506;-70
2023/12/16 00:37:12;;;;;;;15.57;10.05;;;;;;;;;;5051907;28;20425;-70
2023/12/16 00:39:40;;;;;;;15.38;10.27;;;;;;;;;;5047329;28;20432;-70
2023/12/16 00:42:07;;;;;;;15.53;10.20;;;;;;;;;;5050706;28;20432;-70
2023/12/16 00:44:34;;;;;;;14.23;10.48;;;;;;;;;;5050660;28;20440;-70
2023/12/16 00:47:01;;;;;;;14.18;9.95;;;;;;;;;;5050795;28;20859;-70
2023/12/16 00:49:29;;;;;;;13.73;9.82;;;;;;;;;;5032249;28;20437;-70
2023/12/16 00:51:56;;;;;;;14.95;10.63;;;;;;;;;;5050277;28;20464;-70
2023/12/16 00:54:24;;;;;;;14.52;10.13;;;;;;;;;;5047281;28;20555;-70
2023/12/16 00:56:51;;;;;;;14.35;10.25;;;;;;;;;;5050684;28;20460;-70
2023/12/16 00:59:18;;;;;;;16.42;10.52;;;;;;;;;;5050710;28;20513;-70
2023/12/16 01:01:45;;;;;;;15.82;10.70;;;;;;;;;;5030487;28;20437;-70
2023/12/16 01:04:13;;;;;;;15.53;9.93;;;;;;;;;;5049327;28;21131;-70
2023/12/16 01:06:40;;;;;;;17.48;10.93;;;;;;;;;;5044942;28;20440;-70
2023/12/16 01:09:07;;;;;;;16.13;10.30;;;;;;;;;;5049133;28;20799;-70
2023/12/16 01:11:34;;;;;;;17.50;10.70;;;;;;;;;;5044729;28;21216;-70
2023/12/16 01:14:02;;;;;;;19.37;10.37;;;;;;;;;;5038369;28;20455;-70
2023/12/16 01:16:29;;;;;;;16.15;10.35;;;;;;;;;;5048442;28;20429;-70
2023/12/16 01:18:56;;;;;;;15.02;9.88;;;;;;;;;;5041869;28;20580;-70
2023/12/16 01:21:24;;;;;;;16.00;10.40;;;;;;;;;;5046880;28;20503;-70
2023/12/16 01:23:51;;;;;;;16.35;10.63;;;;;;;;;;5047382;28;20436;-70
2023/12/16 01:26:18;;;;;;;14.85;10.27;;;;;;;;;;5046197;28;20437;-70
2023/12/16 01:28:45;;;;;;;14.45;9.70;;;;;;;;;;5041963;28;20429;-70
2023/12/16 01:31:12;;;;;;;13.10;9.77;;;;;;;;;;5043084;28;20433;-70
2023/12/16 01:33:40;;;;;;;15.60;10.40;;;;;;;;;;5047945;28;20519;-70
2023/12/16 01:36:07;;;;;;;13.00;9.25;;;;;;;;;;5050761;28;20524;-70
2023/12/16 01:38:34;;;;;;;16.50;10.15;;;;;;;;;;5035594;28;20790;-70
2023/12/16 01:41:01;;;;;;;15.10;10.48;;;;;;;;;;5042149;28;20433;-70
2023/12/16 01:43:29;;;;;;;15.05;10.00;;;;;;;;;;5049064;28;20432;-70
2023/12/16 01:46:00;;;;;;;13.80;9.90;;;;;;;;;;5045308;28;20487;-71
2023/12/16 01:48:28;;;;;;;13.90;9.70;;;;;;;;;;5050497;28;20429;-70
2023/12/16 01:50:57;;;;;;;16.23;10.10;;;;;;;;;;5049565;28;20854;-70
2023/12/16 01:53:26;;;;;;;17.05;10.70;;;;;;;;;;5043093;28;20428;-70
2023/12/16 01:55:53;;;;;;;15.80;10.48;;;;;;;;;;5057771;28;20523;-70
2023/12/16 01:58:22;;;;;;;18.70;11.53;;;;;;;;;;5056590;28;20427;-70
2023/12/16 02:00:52;;;;;;;17.63;10.70;;;;;;;;;;5050941;28;20440;-70
2023/12/16 02:03:20;;;;;;;18.23;10.90;;;;;;;;;;5050175;28;20429;-70
2023/12/16 02:05:47;;;;;;;18.53;10.77;;;;;;;;;;5046501;28;20927;-71
2023/12/16 02:08:15;;;;;;;17.58;10.25;;;;;;;;;;5043679;28;20437;-70
2023/12/16 02:10:42;;;;;;;19.42;10.15;;;;;;;;;;5048309;28;20907;-70
2023/12/16 02:13:09;;;;;;;17.13;10.98;;;;;;;;;;5049849;28;20429;-70
2023/12/16 02:15:36;;;;;;;17.07;11.07;;;;;;;;;;5052333;28;20433;-70
2023/12/16 02:18:03;;;;;;;17.42;11.23;;;;;;;;;;5050129;28;20436;-70
2023/12/16 02:20:31;;;;;;;16.65;11.07;;;;;;;;;;5049927;28;20441;-70
2023/12/16 02:22:58;;;;;;;18.33;11.32;;;;;;;;;;5048687;28;20435;-70
2023/12/16 02:25:25;;;;;;;19.05;11.27;;;;;;;;;;5045272;28;20435;-70
2023/12/16 02:27:52;;;;;;;20.00;11.68;;;;;;;;;;5049485;28;20444;-70
2023/12/16 02:30:20;;;;;;;18.05;11.95;;;;;;;;;;5045466;28;20429;-70
2023/12/16 02:32:48;;;;;;;18.33;11.40;;;;;;;;;;5056932;28;20871;-70
2023/12/16 02:35:15;;;;;;;20.80;12.10;;;;;;;;;;5031181;28;20452;-70
2023/12/16 02:37:42;;;;;;;18.38;11.73;;;;;;;;;;5029816;28;20512;-70
2023/12/16 02:40:10;;;;;;;18.65;11.48;;;;;;;;;;5040814;28;20429;-70
2023/12/16 02:42:37;;;;;;;17.33;11.50;;;;;;;;;;5047900;28;20429;-70
2023/12/16 02:45:04;;;;;;;15.27;11.00;;;;;;;;;;5048800;28;20498;-68
2023/12/16 02:47:31;;;;;;;18.70;11.48;;;;;;;;;;5048209;28;20927;-69
2023/12/16 02:49:59;;;;;;;17.13;11.00;;;;;;;;;;5046101;28;20935;-69
2023/12/16 02:52:26;;;;;;;15.57;10.40;;;;;;;;;;5043386;28;20437;-69
2023/12/16 02:54:53;;;;;;;15.20;10.25;;;;;;;;;;5043742;28;20437;-69
2023/12/16 02:57:20;;;;;;;16.38;11.05;;;;;;;;;;5037482;28;20970;-69
2023/12/16 02:59:47;;;;;;;17.98;11.32;;;;;;;;;;5045858;28;20905;-69
2023/12/16 03:02:15;;;;;;;17.05;10.82;;;;;;;;;;5043778;28;21098;-69
2023/12/16 03:04:42;;;;;;;17.58;10.85;;;;;;;;;;5043518;28;20437;-68
2023/12/16 03:07:10;;;;;;;17.40;10.90;;;;;;;;;;5039123;28;20452;-69
2023/12/16 03:09:37;;;;;;;16.17;10.30;;;;;;;;;;5044021;28;20499;-69
2023/12/16 03:12:04;;;;;;;18.30;10.63;;;;;;;;;;5035538;28;20447;-69
2023/12/16 03:14:32;;;;;;;17.35;10.70;;;;;;;;;;5034350;28;20474;-69
2023/12/16 03:16:59;;;;;;;16.30;10.63;;;;;;;;;;5037030;28;20430;-69
2023/12/16 03:19:27;;;;;;;15.45;9.98;;;;;;;;;;5033661;28;20460;-69
2023/12/16 03:21:54;;;;;;;18.83;10.10;;;;;;;;;;5040921;28;21145;-69
2023/12/16 03:24:22;;;;;;;13.40;9.85;;;;;;;;;;5034946;28;20466;-69
2023/12/16 03:26:49;;;;;;;16.20;10.57;;;;;;;;;;5037914;28;20440;-69
2023/12/16 03:29:16;;;;;;;15.60;10.00;;;;;;;;;;5037062;28;20981;-69
2023/12/16 03:31:43;;;;;;;15.38;10.63;;;;;;;;;;5037339;28;20437;-69
2023/12/16 03:34:10;;;;;;;18.98;10.73;;;;;;;;;;5039793;28;20445;-69
2023/12/16 03:36:37;;;;;;;15.82;10.65;;;;;;;;;;5040827;28;20496;-69
2023/12/16 03:39:05;;;;;;;14.73;10.23;;;;;;;;;;5037034;28;20517;-69
2023/12/16 03:41:34;;;;;;;16.63;10.40;;;;;;;;;;5039323;28;20786;-69
2023/12/16 03:44:01;;;;;;;15.93;10.20;;;;;;;;;;5036852;28;20446;-70
2023/12/16 03:46:28;;;;;;;14.10;9.82;;;;;;;;;;5033341;28;20844;-69
2023/12/16 03:48:55;;;;;;;14.30;9.68;;;;;;;;;;5036364;28;20425;-69
2023/12/16 03:51:23;;;;;;;16.45;10.15;;;;;;;;;;5032719;28;20441;-69
2023/12/16 03:53:50;;;;;;;16.63;10.50;;;;;;;;;;5029206;28;20429;-69
2023/12/16 03:56:17;;;;;;;16.13;10.07;;;;;;;;;;5034586;28;20426;-69
2023/12/16 03:58:44;;;;;;;17.02;10.25;;;;;;;;;;5033658;28;20508;-69
2023/12/16 04:01:13;;;;;;;16.33;10.13;;;;;;;;;;5036441;28;20980;-69
2023/12/16 04:03:41;;;;;;;15.55;10.05;;;;;;;;;;5039795;28;20461;-69
2023/12/16 04:06:14;;;;;;;15.65;10.05;;;;;;;;;;5038473;28;20437;-70
2023/12/16 04:08:42;;;;;;;16.30;10.53;;;;;;;;;;5039955;28;20536;-69
2023/12/16 04:11:09;;;;;;;16.63;9.85;;;;;;;;;;5040036;28;20709;-69
2023/12/16 04:13:36;;;;;;;15.95;10.13;;;;;;;;;;5040539;28;21126;-69
2023/12/16 04:16:04;;;;;;;15.60;10.13;;;;;;;;;;5032551;28;20514;-69
2023/12/16 04:18:32;;;;;;;18.55;10.50;;;;;;;;;;5042698;28;21040;-69
2023/12/16 04:21:01;;;;;;;17.10;10.82;;;;;;;;;;5040111;28;20429;-69
2023/12/16 04:23:28;;;;;;;18.27;10.30;;;;;;;;;;5038736;28;20462;-69
2023/12/16 04:25:55;;;;;;;12.80;10.07;;;;;;;;;;5035371;28;20516;-69
2023/12/16 04:28:23;;;;;;;14.27;9.98;;;;;;;;;;5043413;28;20498;-69
2023/12/16 04:30:50;;;;;;;15.60;10.18;;;;;;;;;;5035591;28;20441;-69
2023/12/16 04:33:17;;;;;;;14.88;9.80;;;;;;;;;;5039534;28;20433;-69
2023/12/16 04:35:45;;;;;;;16.23;9.65;;;;;;;;;;5041935;28;20431;-69
2023/12/16 04:38:12;;;;;;;15.10;10.18;;;;;;;;;;5036120;28;20436;-69
2023/12/16 04:40:39;;;;;;;17.02;9.65;;;;;;;;;;5042403;28;20455;-69
2023/12/16 04:43:06;;;;;;;14.88;9.68;;;;;;;;;;5047473;28;20426;-69
2023/12/16 04:45:35;;;;;;;15.00;9.83;;;;;;;;;;5038468;28;20459;-69
2023/12/16 04:48:02;;;;;;;16.17;10.10;;;;;;;;;;5045943;28;21316;-69
2023/12/16 04:50:30;;;;;;;15.90;10.20;;;;;;;;;;5036045;28;20907;-69
2023/12/16 04:52:57;;;;;;;17.40;10.45;;;;;;;;;;5039175;28;20435;-69
2023/12/16 04:55:24;;;;;;;14.70;9.82;;;;;;;;;;5038814;28;20435;-69
2023/12/16 04:57:51;;;;;;;16.27;10.52;;;;;;;;;;5046805;28;20433;-69
2023/12/16 05:00:19;;;;;;;14.45;9.80;;;;;;;;;;5043551;28;20433;-69
2023/12/16 05:02:46;;;;;;;15.93;10.13;;;;;;;;;;5034357;28;20431;-69
2023/12/16 05:05:13;;;;;;;13.98;9.80;;;;;;;;;;5047295;28;20461;-69
2023/12/16 05:07:40;;;;;;;14.07;9.98;;;;;;;;;;5048585;28;20428;-69
2023/12/16 05:10:10;;;;;;;14.00;10.00;;;;;;;;;;5043112;28;20519;-69
2023/12/16 05:12:39;;;;;;;15.40;10.20;;;;;;;;;;5039932;28;20439;-69
2023/12/16 05:15:07;;;;;;;15.67;9.93;;;;;;;;;;5048051;28;20429;-69
2023/12/16 05:17:34;;;;;;;16.45;9.82;;;;;;;;;;5040157;28;20437;-69
2023/12/16 05:20:01;;;;;;;12.65;9.43;;;;;;;;;;5049083;28;21046;-69
2023/12/16 05:22:33;;;;;;;13.48;9.43;;;;;;;;;;5037023;28;20556;-69
2023/12/16 05:25:04;;;;;;;15.32;9.35;;;;;;;;;;5034081;28;20525;-69
2023/12/16 05:27:31;;;;;;;15.75;9.80;;;;;;;;;;5037294;28;20439;-69
2023/12/16 05:29:59;;;;;;;14.00;9.57;;;;;;;;;;5039266;28;20437;-69
2023/12/16 05:32:26;;;;;;;15.50;9.43;;;;;;;;;;5048392;28;20457;-69
2023/12/16 05:34:54;;;;;;;14.10;8.98;;;;;;;;;;5047621;28;20433;-69
2023/12/16 05:37:21;;;;;;;13.75;9.05;;;;;;;;;;5041102;28;20488;-69
2023/12/16 05:39:48;;;;;;;17.13;9.98;;;;;;;;;;5047075;28;20443;-69
2023/12/16 05:42:16;;;;;;;12.23;8.77;;;;;;;;;;5042163;28;20425;-69
2023/12/16 05:44:43;;;;;;;13.45;9.18;;;;;;;;;;5038574;28;20518;-69
2023/12/16 05:47:11;;;;;;;13.15;9.25;;;;;;;;;;5048736;28;20920;-69
2023/12/16 05:49:38;;;;;;;13.80;9.15;;;;;;;;;;5040992;28;20430;-69
2023/12/16 05:52:05;;;;;;;13.50;9.48;;;;;;;;;;5038905;28;20429;-69
2023/12/16 05:54:32;;;;;;;15.98;9.82;;;;;;;;;;5041606;28;20439;-69
2023/12/16 05:57:00;;;;;;;14.10;9.35;;;;;;;;;;5045460;28;20492;-69
2023/12/16 05:59:28;;;;;;;15.13;9.80;;;;;;;;;;5044178;28;20433;-69
2023/12/16 06:01:55;;;;;;;16.67;9.85;;;;;;;;;;5035657;28;20444;-69
2023/12/16 06:04:23;;;;;;;17.30;10.02;;;;;;;;;;5038617;28;20425;-68
2023/12/16 06:06:50;;;;;;;15.43;9.33;;;;;;;;;;5041123;28;20421;-69
2023/12/16 06:09:17;;;;;;;15.95;10.07;;;;;;;;;;5039005;28;20429;-68
2023/12/16 06:11:45;;;;;;;15.25;10.48;;;;;;;;;;5037592;28;20427;-69
2023/12/16 06:14:14;;;;;;;19.08;10.77;;;;;;;;;;5046955;28;20923;-69
2023/12/16 06:16:41;;;;;;;17.65;10.32;;;;;;;;;;5037923;28;20532;-69
2023/12/16 06:19:09;;;;;;;17.02;10.40;;;;;;;;;;5043647;28;21356;-69
2023/12/16 06:21:36;;;;;;;18.02;10.95;;;;;;;;;;5040527;28;21254;-69
2023/12/16 06:24:04;;;;;;;16.30;10.70;;;;;;;;;;5044870;28;20429;-69
2023/12/16 06:26:31;;;;;;;18.90;10.88;;;;;;;;;;5045287;28;20433;-68
2023/12/16 06:28:58;;;;;;;18.85;10.80;;;;;;;;;;5035948;28;20550;-68
2023/12/16 06:31:25;;;;;;;15.88;11.15;;;;;;;;;;5036988;28;20437;-69
2023/12/16 06:33:53;;;;;;;17.83;10.80;;;;;;;;;;5047805;28;20437;-69
2023/12/16 06:36:20;;;;;;;17.83;11.13;;;;;;;;;;5045595;28;20428;-69
2023/12/16 06:38:47;;;;;;;18.02;10.80;;;;;;;;;;5043223;28;20540;-68
2023/12/16 06:41:14;;;;;;;17.77;10.88;;;;;;;;;;5039711;28;20433;-69
2023/12/16 06:43:43;;;;;;;17.33;11.13;;;;;;;;;;5042874;28;20832;-69
2023/12/16 06:46:10;;;;;;;16.38;11.10;;;;;;;;;;5040729;28;20439;-68
2023/12/16 06:48:37;;;;;;;18.90;11.50;;;;;;;;;;5041698;28;20431;-69
2023/12/16 06:51:05;;;;;;;18.13;11.52;;;;;;;;;;5035183;28;20858;-68
2023/12/16 06:53:35;;;;;;;21.05;11.55;;;;;;;;;;5038571;28;20429;-69
2023/12/16 06:56:03;;;;;;;19.25;11.07;;;;;;;;;;5037292;28;20454;-69
2023/12/16 06:58:32;;;;;;;15.93;11.63;;;;;;;;;;5040473;28;20506;-68
2023/12/16 07:00:59;;;;;;;19.63;12.10;;;;;;;;;;5041047;28;20520;-67
2023/12/16 07:03:28;;;;;;;20.90;12.60;;;;;;;;;;5039001;28;20831;-67
2023/12/16 07:05:56;;;;;;;19.77;12.55;;;;;;;;;;5037390;28;20436;-67
2023/12/16 07:08:23;;;;;;;19.15;11.90;;;;;;;;;;5037482;28;20440;-67
2023/12/16 07:10:50;;;;;;;20.55;12.13;;;;;;;;;;5045256;28;20486;-67
2023/12/16 07:13:17;;;;;;;21.02;11.85;;;;;;;;;;5041888;28;21007;-67
2023/12/16 07:15:45;;;;;;;19.75;12.00;;;;;;;;;;5044360;28;20456;-67
2023/12/16 07:18:12;;;;;;;19.27;11.43;;;;;;;;;;5037823;28;20435;-67
2023/12/16 07:20:40;;;;;;;17.20;11.20;;;;;;;;;;5032244;28;21033;-67
2023/12/16 07:23:08;;;;;;;20.73;11.52;;;;;;;;;;5030609;28;20501;-67
2023/12/16 07:25:35;;;;;;;17.40;11.48;;;;;;;;;;5038553;28;20469;-67
2023/12/16 07:28:03;;;;;;;19.17;11.70;;;;;;;;;;5041806;28;20463;-67
2023/12/16 07:30:30;;;;;;;17.55;10.88;;;;;;;;;;5038485;28;20925;-67
2023/12/16 07:32:57;;;;;;;17.88;11.85;;;;;;;;;;5035979;28;20483;-67
2023/12/16 07:35:25;;;;;;;19.65;11.50;;;;;;;;;;5044949;28;20826;-67
2023/12/16 07:37:52;;;;;;;18.90;11.48;;;;;;;;;;5045664;28;20429;-67
2023/12/16 07:40:20;;;;;;;17.88;11.10;;;;;;;;;;5028540;28;20435;-67
2023/12/16 07:42:47;;;;;;;18.98;11.77;;;;;;;;;;5045348;28;20885;-67
2023/12/16 07:45:14;;;;;;;18.67;11.17;;;;;;;;;;5038021;28;20436;-67
2023/12/16 07:47:42;;;;;;;16.40;11.40;;;;;;;;;;5037682;28;20974;-67
2023/12/16 07:50:10;;;;;;;16.90;11.48;;;;;;;;;;5045355;28;20518;-67
2023/12/16 07:52:40;;;;;;;17.45;11.10;;;;;;;;;;5044695;28;20437;-67
2023/12/16 07:55:07;;;;;;;16.83;11.80;;;;;;;;;;5034811;28;20493;-67
2023/12/16 07:57:34;;;;;;;16.02;11.32;;;;;;;;;;5039165;28;20439;-67
2023/12/16 08:00:02;;;;;;;18.13;11.33;;;;;;;;;;5030526;28;20435;-67
2023/12/16 08:02:31;;;;;;;17.88;10.98;;;;;;;;;;5040481;28;20428;-67
2023/12/16 08:04:58;;;;;;;17.55;11.30;;;;;;;;;;5036210;28;20545;-68
2023/12/16 08:07:25;;;;;;;16.83;11.57;;;;;;;;;;5036100;28;20461;-67
2023/12/16 08:09:52;;;;;;;17.15;11.20;;;;;;;;;;5046315;28;20435;-68
2023/12/16 08:12:20;;;;;;;18.42;10.95;;;;;;;;;;5039887;28;20441;-68
2023/12/16 08:14:47;;;;;;;16.13;11.35;;;;;;;;;;5047587;28;20425;-68
2023/12/16 08:17:14;;;;;;;17.83;11.27;;;;;;;;;;5042295;28;20525;-68
2023/12/16 08:19:42;;;;;;;16.85;11.27;;;;;;;;;;5043036;28;20514;-67
2023/12/16 08:22:10;;;;;;;19.40;11.88;;;;;;;;;;5039656;28;20503;-67
2023/12/16 08:24:37;;;;;;;15.27;10.82;;;;;;;;;;5037856;28;20433;-67
2023/12/16 08:27:04;;;;;;;15.63;11.07;;;;;;;;;;5035506;28;20437;-68
2023/12/16 08:29:31;;;;;;;14.32;10.63;;;;;;;;;;5041175;28;20461;-68
2023/12/16 08:31:59;;;;;;;14.75;10.65;;;;;;;;;;5044324;28;20440;-67
2023/12/16 08:34:26;;;;;;;15.98;10.73;;;;;;;;;;5037853;28;20434;-69
2023/12/16 08:36:54;;;;;;;14.00;10.25;;;;;;;;;;5039714;28;20435;-67
2023/12/16 08:39:22;;;;;;;14.60;10.27;;;;;;;;;;5040884;28;21986;-67
2023/12/16 08:41:49;;;;;;;16.27;10.60;;;;;;;;;;5034476;28;20594;-68
2023/12/16 08:44:16;;;;;;;17.35;11.07;;;;;;;;;;5041219;28;20521;-68
2023/12/16 08:46:43;;;;;;;15.40;10.57;;;;;;;;;;5043046;28;20718;-68
2023/12/16 08:49:10;;;;;;;16.80;11.52;;;;;;;;;;5036127;28;21098;-68
2023/12/16 08:51:38;;;;;;;17.95;11.20;;;;;;;;;;5045408;28;20524;-68
2023/12/16 08:54:05;;;;;;;14.18;10.82;;;;;;;;;;5043377;28;20431;-67
2023/12/16 08:56:32;;;;;;;15.90;10.85;;;;;;;;;;5043345;28;20524;-68
2023/12/16 08:58:59;;;;;;;15.47;10.43;;;;;;;;;;5043720;28;20491;-68
2023/12/16 09:01:27;;;;;;;14.35;10.68;;;;;;;;;;5032856;28;20915;-68
2023/12/16 09:03:54;;;;;;;16.20;10.30;;;;;;;;;;5033417;28;20507;-67
2023/12/16 09:06:24;;;;;;;14.25;9.95;;;;;;;;;;5042671;28;20516;-67
2023/12/16 09:08:51;;;;;;;13.13;9.73;;;;;;;;;;5043143;28;20435;-68
2023/12/16 09:11:18;;;;;;;14.53;9.83;;;;;;;;;;5045703;28;20440;-68
2023/12/16 09:13:46;;;;;;;13.30;9.68;;;;;;;;;;5043457;28;20996;-68
2023/12/16 09:16:13;;;;;;;16.17;10.43;;;;;;;;;;5034264;28;20442;-68
2023/12/16 09:18:40;;;;;;;15.80;9.90;;;;;;;;;;5041113;28;20452;-68
2023/12/16 09:21:08;;;;;;;13.98;10.45;;;;;;;;;;5043239;28;20437;-68
2023/12/16 09:23:35;;;;;;;16.33;9.80;;;;;;;;;;5042490;28;20417;-68
2023/12/16 09:26:02;;;;;;;16.30;10.50;;;;;;;;;;5036667;28;20521;-68
2023/12/16 09:28:30;;;;;;;16.52;10.18;;;;;;;;;;5044736;28;20458;-68
2023/12/16 09:30:57;;;;;;;12.87;8.87;;;;;;;;;;5038668;28;20524;-68
2023/12/16 09:33:25;;;;;;;14.18;9.57;;;;;;;;;;5037821;28;20856;-68
2023/12/16 09:35:52;;;;;;;12.80;9.02;;;;;;;;;;5045317;28;20539;-68
2023/12/16 09:38:19;;;;;;;14.00;9.15;;;;;;;;;;5043005;28;20786;-68
2023/12/16 09:40:46;;;;;;;14.30;8.90;;;;;;;;;;5037172;28;20532;-68
2023/12/16 09:43:17;;;;;;;15.50;9.10;;;;;;;;;;5043270;28;20523;-68
2023/12/16 09:45:46;;;;;;;13.07;9.20;;;;;;;;;;5045680;28;20425;-68
2023/12/16 09:48:16;;;;;;;13.63;8.77;;;;;;;;;;5043202;28;20917;-68
2023/12/16 09:50:43;;;;;;;13.85;8.63;;;;;;;;;;5040949;28;20438;-68
2023/12/16 09:53:10;;;;;;;13.90;8.70;;;;;;;;;;5038062;28;20433;-68
2023/12/16 09:55:38;;;;;;;11.55;8.30;;;;;;;;;;5043472;28;20444;-68
2023/12/16 09:58:05;;;;;;;13.75;7.72;;;;;;;;;;5038272;28;20429;-69
2023/12/16 10:00:33;;;;;;;11.35;7.38;;;;;;;;;;5038083;28;20436;-68
2023/12/16 10:03:00;;;;;;;10.30;7.05;;;;;;;;;;5043687;28;20431;-68
2023/12/16 10:05:29;;;;;;;10.43;7.00;;;;;;;;;;5041637;28;20920;-68
2023/12/16 10:08:04;;;;;;;10.68;6.25;;;;;;;;;;5042396;28;20537;-68
2023/12/16 10:10:32;;;;;;;10.15;6.32;;;;;;;;;;5040160;28;20421;-68
2023/12/16 10:13:03;;;;;;;11.25;6.60;;;;;;;;;;5041054;28;20434;-68
2023/12/16 10:15:34;;;;;;;9.55;6.38;;;;;;;;;;5040501;28;20435;-68
2023/12/16 10:18:02;;;;;;;12.18;6.15;;;;;;;;;;5044695;28;20464;-68
2023/12/16 10:20:30;;;;;;;9.95;5.80;;;;;;;;;;5044320;28;20430;-68
2023/12/16 10:23:01;;;;;;;10.90;6.63;;;;;;;;;;5037002;28;20431;-68
2023/12/16 10:25:31;;;;;;;9.97;6.00;;;;;;;;;;5041458;28;20460;-68
2023/12/16 10:28:02;;;;;;;10.90;6.40;;;;;;;;;;5030311;28;20425;-69
2023/12/16 10:30:30;;;;;;;10.75;5.65;;;;;;;;;;5035886;28;20431;-68
2023/12/16 10:32:57;;;;;;;9.90;6.22;;;;;;;;;;5039201;28;20486;-68
2023/12/16 10:35:26;;;;;;;10.80;6.00;;;;;;;;;;5030397;28;20553;-68
2023/12/16 10:37:53;;;;;;;9.45;6.15;;;;;;;;;;5032991;28;20442;-68
2023/12/16 10:40:23;;;;;;;14.77;8.17;;;;;;;;;;5042767;28;20433;-68
2023/12/16 10:42:50;;;;;;;8.25;6.60;;;;;;;;;;5035299;28;20492;-68
2023/12/16 10:45:18;;;;;;;10.10;5.78;;;;;;;;;;5043405;28;20429;-68
2023/12/16 10:47:49;;;;;;;7.95;5.47;;;;;;;;;;5044570;28;20429;-69
2023/12/16 10:50:21;;;;;;;12.27;6.80;;;;;;;;;;5034539;28;20518;-68
2023/12/16 10:52:53;;;;;;;10.02;5.03;;;;;;;;;;5042021;28;20950;-68
2023/12/16 10:55:25;;;;;;;7.68;4.65;;;;;;;;;;5038199;28;20425;-68
2023/12/16 10:57:59;;;;;;;9.15;5.25;;;;;;;;;;5037618;28;20499;-68
2023/12/16 11:00:28;;;;;;;6.32;4.65;;;;;;;;;;5043141;28;20892;-68
2023/12/16 11:03:04;;;;;;;8.65;4.70;;;;;;;;;;5031007;28;20912;-68
2023/12/16 11:05:36;;;;;;;9.43;4.38;;;;;;;;;;5041272;28;20430;-68
2023/12/16 11:08:04;;;;;;;9.48;5.10;;;;;;;;;;5041465;28;20496;-68
2023/12/16 11:10:31;;;;;;;5.53;4.40;;;;;;;;;;5036595;28;20867;-70
2023/12/16 11:13:04;;;;;;;7.53;4.72;;;;;;;;;;5035101;28;20430;-69
2023/12/16 11:15:32;;;;;;;8.03;5.10;;;;;;;;;;5035571;28;20445;-69
2023/12/16 11:18:11;;;;;;;7.53;4.73;;;;;;;;;;5044693;28;20472;-69
2023/12/16 11:20:41;;;;;;;8.43;4.82;;;;;;;;;;5033946;28;20456;-69
2023/12/16 11:23:09;;;;;;;9.10;4.73;;;;;;;;;;5035641;28;20494;-69
2023/12/16 11:25:37;;;;;;;6.80;4.70;;;;;;;;;;5036435;28;20909;-68
2023/12/16 11:28:05;;;;;;;7.30;4.63;;;;;;;;;;5034094;28;20441;-69
2023/12/16 11:30:33;;;;;;;8.38;4.50;;;;;;;;;;5036059;28;20997;-68
2023/12/16 11:33:01;;;;;;;8.00;4.40;;;;;;;;;;5040246;28;20440;-68
2023/12/16 11:35:34;;;;;;;11.27;4.18;;;;;;;;;;5040771;28;20627;-68
2023/12/16 11:38:02;;;;;;;6.90;3.60;;;;;;;;;;5035772;28;20546;-68
2023/12/16 11:40:42;;;;;;;7.30;3.72;;;;;;;;;;5031807;28;20438;-69
2023/12/16 11:43:10;;;;;;;6.88;3.33;;;;;;;;;;5036541;28;20433;-68
2023/12/16 11:45:46;;;;;;;5.97;3.28;;;;;;;;;;5035621;28;20435;-69
2023/12/16 11:48:14;;;;;;;7.65;3.25;;;;;;;;;;5037156;28;20436;-68
2023/12/16 11:50:43;;;;;;;8.55;4.00;;;;;;;;;;5032828;28;20530;-69
2023/12/16 11:53:10;;;;;;;9.00;4.25;;;;;;;;;;5038931;28;20425;-69
2023/12/16 11:55:38;;;;;;;7.85;4.00;;;;;;;;;;5041790;28;20435;-69
2023/12/16 11:58:05;;;;;;;9.77;4.63;;;;;;;;;;5038003;28;20437;-69
2023/12/16 12:00:33;;;;;;;6.95;3.90;;;;;;;;;;5041037;28;20987;-69
2023/12/16 12:03:00;;;;;;;9.30;3.40;;;;;;;;;;5041997;28;20487;-68
2023/12/16 12:05:32;;;;;;;6.97;2.80;;;;;;;;;;5039157;28;20454;-69
2023/12/16 12:07:59;;;;;;;7.78;3.10;;;;;;;;;;5041347;28;20942;-68
2023/12/16 12:10:27;;;;;;;6.05;2.75;;;;;;;;;;5044939;28;20520;-69
2023/12/16 12:12:54;;;;;;;5.82;2.92;;;;;;;;;;5037788;28;20484;-68
2023/12/16 12:15:21;;;;;;;7.07;2.38;;;;;;;;;;5039069;28;20470;-68
2023/12/16 12:17:49;;;;;;;7.38;2.72;;;;;;;;;;5040948;28;20431;-68
2023/12/16 12:20:19;;;;;;;5.13;2.50;;;;;;;;;;5036202;28;20455;-68
2023/12/16 12:22:46;;;;;;;5.68;2.38;;;;;;;;;;5039976;28;20421;-68
2023/12/16 12:25:17;;;;;;;5.15;2.13;;;;;;;;;;5032301;28;20510;-69
2023/12/16 12:27:49;;;;;;;4.20;1.70;;;;;;;;;;5042705;28;20434;-68
2023/12/16 12:30:19;;;;;;;7.25;1.95;;;;;;;;;;5037953;28;20479;-68
2023/12/16 12:32:47;;;;;;;4.15;1.90;;;;;;;;;;5039093;28;20444;-68
2023/12/16 12:35:15;;;;;;;5.47;1.80;;;;;;;;;;5041713;28;20429;-68
2023/12/16 12:37:44;;;;;;;5.73;1.83;;;;;;;;;;5045942;28;20527;-68
2023/12/16 12:40:14;;;;;;;5.72;1.65;;;;;;;;;;5044367;28;20433;-68
2023/12/16 12:42:48;;;;;;;5.35;1.73;;;;;;;;;;5035205;28;20437;-68
2023/12/16 12:45:25;;;;;;;3.53;1.60;;;;;;;;;;5045148;28;20899;-68
2023/12/16 12:47:53;;;;;;;4.68;1.67;;;;;;;;;;5037590;28;20438;-68
2023/12/16 12:50:24;;;;;;;4.18;1.67;;;;;;;;;;5047121;28;21125;-68
2023/12/16 12:52:51;;;;;;;6.07;1.75;;;;;;;;;;5035258;28;20482;-68
2023/12/16 12:55:39;;;;;;;5.07;1.90;;;;;;;;;;5041242;28;20789;-66
2023/12/16 12:58:07;;;;;;;5.85;1.92;;;;;;;;;;5042879;28;20425;-66
2023/12/16 13:00:45;;;;;;;3.30;1.50;;;;;;;;;;5035135;28;20435;-66
2023/12/16 13:03:13;;;;;;;4.57;1.30;;;;;;;;;;5035896;28;20860;-66
2023/12/16 13:05:42;;;;;;;4.68;1.70;;;;;;;;;;5041658;28;20810;-66
2023/12/16 13:08:10;;;;;;;5.07;1.88;;;;;;;;;;5042424;28;20512;-67
2023/12/16 13:10:38;;;;;;;6.00;1.73;;;;;;;;;;5044936;28;20429;-66
2023/12/16 13:13:05;;;;;;;5.40;1.52;;;;;;;;;;5048521;28;20452;-66
2023/12/16 13:15:33;;;;;;;5.35;1.60;;;;;;;;;;5045452;28;20462;-66
2023/12/16 13:18:21;;;;;;;5.22;1.60;;;;;;;;;;5043410;28;20415;-66
2023/12/16 13:20:49;;;;;;;5.18;1.60;;;;;;;;;;5040793;28;20429;-66
2023/12/16 13:23:16;;;;;;;5.57;1.42;;;;;;;;;;5033856;28;20900;-66
2023/12/16 13:25:43;;;;;;;5.57;1.73;;;;;;;;;;5044703;28;20893;-69
2023/12/16 13:28:11;;;;;;;3.58;1.55;;;;;;;;;;5047291;28;20432;-69
2023/12/16 13:30:40;;;;;;;2.53;1.30;;;;;;;;;;5046305;28;20435;-69
2023/12/16 13:33:08;;;;;;;5.40;1.50;;;;;;;;;;5037896;28;20454;-69
2023/12/16 13:35:35;;;;;;;4.97;1.38;;;;;;;;;;5038051;28;21948;-68
2023/12/16 13:38:03;;;;;;;5.07;1.58;;;;;;;;;;5045673;28;20504;-68
2023/12/16 13:40:30;;;;;;;5.50;2.03;;;;;;;;;;5032300;28;21131;-69
2023/12/16 13:42:57;;;;;;;6.32;1.50;;;;;;;;;;5039770;28;20440;-69
2023/12/16 13:45:24;;;;;;;11.05;1.77;;;;;;;;;;5047829;28;20426;-69
2023/12/16 13:47:52;;;;;;;6.95;1.58;;;;;;;;;;5044779;28;20956;-69
2023/12/16 13:50:21;;;;;;;4.05;1.73;;;;;;;;;;5038605;28;20489;-71
2023/12/16 13:52:51;;;;;;;4.65;1.40;;;;;;;;;;5049706;28;20439;-68
2023/12/16 13:55:18;;;;;;;4.55;1.50;;;;;;;;;;5046488;28;21094;-68
2023/12/16 13:57:45;;;;;;;6.80;1.80;;;;;;;;;;5037846;28;20431;-68
2023/12/16 14:00:13;;;;;;;4.32;1.95;;;;;;;;;;5040216;28;20507;-68
2023/12/16 14:02:40;;;;;;;4.87;1.73;;;;;;;;;;5035502;28;20432;-66
2023/12/16 14:05:07;;;;;;;8.07;2.05;;;;;;;;;;5038676;28;20433;-66
2023/12/16 14:07:35;;;;;;;7.93;1.67;;;;;;;;;;5038420;28;20451;-68
2023/12/16 14:10:06;;;;;;;5.90;1.63;;;;;;;;;;5038851;28;20932;-68
2023/12/16 14:12:33;;;;;;;4.90;1.42;;;;;;;;;;5044363;28;20429;-69
2023/12/16 14:15:01;;;;;;;5.75;1.70;;;;;;;;;;5037812;28;20511;-67
2023/12/16 14:17:28;;;;;;;7.47;1.55;;;;;;;;;;5039959;28;20915;-67
2023/12/16 14:19:55;;;;;;;6.67;1.77;;;;;;;;;;5043456;28;20434;-66
2023/12/16 14:22:23;;;;;;;6.53;1.80;;;;;;;;;;5038444;28;20504;-67
2023/12/16 14:24:50;;;;;;;3.42;1.50;;;;;;;;;;5044970;28;20452;-66
2023/12/16 14:27:19;;;;;;;3.73;1.40;;;;;;;;;;5037189;28;20438;-67
2023/12/16 14:29:47;;;;;;;6.60;1.70;;;;;;;;;;5031609;28;20456;-67